Strona główna
METAR-TAF:

METAR-TAF

Lotnisko :

Port lotniczy Jackson Hole

Jackson, Wyoming, Stany Zjednoczone

Szerokość geograficzna: 43-36N, Długość geograficzna: 110-44W, wysokość: 1964 m

Aktualna obserwacja pogody

Raport powstał 25 minut temu, godzina 00:56 UTC
Wiatr 4 kt od wschodnio-południowy wschód
Temperatura -7°C
Wilgotność 62%
Ciśnienie 1018 hPa
Widzialność: 16.1 km
bezchmurnie

METAR: KJAC 230056Z 12004KT 10SM CLR M07/M13 A3006 RMK AO2 SLP293 T10721133

czas: 18:21 (01:21 UTC)

Prognoza

Raport powstał 1 godzina i 56 minut temu, godzina 23:25 UTC
Prognoza ważna od 23 godzina 00 UTC do 23 godzina 24 UTC
Wiatr 6 kt od południowo-południowy wschód
Widzialność: 10 km
bezchmurnie
Od 23 godzina 0300 UTC
Wiatr 8 kt od północ
Widzialność: 10 km
bezchmurnie
Od 23 godzina 1900 UTC
Wiatr 8 kt od południe
Widzialność: 10 km
Mało chmury na wysokości 20000 ft

TAF: KJAC 222325Z 2300/2324 15006KT P6SM SKC FM230300 01008KT P6SM SKC FM231900 19008KT P6SM FEW200

Obserwacja i prognoza pogody dla ponad 4000 lotnisk (raport METAR i TAF).

Dostępne stacje oznaczono żółtymi i czerwonymi punktami na mapie.

Najedź kursorem aby zobaczyć nazwę stacji.

Kliknij aby zobaczyć obserwacje i prognozy pogody.

Aby zmienić mapę: kliknij na zielony przycisk z czarnym krzyżykiem, aby powiększyć; na zielony przycisk z myślnikiem, aby pomniejszyć; na zielone strzałki, aby przejść do map sąsiednich.


METAR-TAF: